Time;durP1;ratioP1;P1;durP2;ratioP2;P2;SDS_P1;SDS_P2;PMS_P1;PMS_P2;Temp;Humidity;BMP_temperature;BMP_pressure;BME280_temperature;BME280_humidity;BME280_pressure;Samples;Min_cycle;Max_cycle;Signal;HPM_P1;HPM_P2
2022/03/14 00:01:40;;;;;;;1.50;1.50;;;;;;;;;;5092111;28;20012;-83
2022/03/14 00:04:05;;;;;;;0.88;0.88;;;;;;;;;;5092737;28;20108;-82
2022/03/14 00:06:32;;;;;;;0.55;0.55;;;;;;;;;;5093443;28;20065;-85
2022/03/14 00:08:58;;;;;;;0.90;0.90;;;;;;;;;;5092500;28;20024;-84
2022/03/14 00:11:24;;;;;;;1.00;1.00;;;;;;;;;;5092573;28;20076;-83
2022/03/14 00:13:50;;;;;;;0.60;0.60;;;;;;;;;;5092619;28;20043;-84
2022/03/14 00:16:28;;;;;;;2.30;1.23;;;;;;;;;;5092346;28;20036;-84
2022/03/14 00:18:53;;;;;;;;;;;;;;;;;;5093168;28;20465;-84
2022/03/14 00:21:21;;;;;;;2.05;1.95;;;;;;;;;;5092461;28;19911;-82
2022/03/14 00:23:46;;;;;;;1.35;1.25;;;;;;;;;;5092236;28;20028;-84
2022/03/14 00:26:12;;;;;;;0.98;0.98;;;;;;;;;;5092227;28;20024;-86
2022/03/14 00:28:37;;;;;;;0.60;0.60;;;;;;;;;;5092462;28;20020;-83
2022/03/14 00:31:02;;;;;;;0.90;0.90;;;;;;;;;;5092348;28;20077;-85
2022/03/14 00:33:28;;;;;;;1.08;1.00;;;;;;;;;;5092511;28;20446;-83
2022/03/14 00:35:56;;;;;;;1.25;1.25;;;;;;;;;;5092069;28;20122;-84
2022/03/14 00:38:22;;;;;;;1.27;1.27;;;;;;;;;;5093000;28;20115;-82
2022/03/14 00:40:47;;;;;;;0.90;0.90;;;;;;;;;;5092236;28;20058;-87
2022/03/14 00:43:13;;;;;;;1.92;1.83;;;;;;;;;;5092174;28;20120;-83
2022/03/14 00:45:38;;;;;;;0.50;0.50;;;;;;;;;;5092190;28;20020;-85
2022/03/14 00:48:03;;;;;;;1.05;1.05;;;;;;;;;;5092228;28;20027;-83
2022/03/14 00:50:29;;;;;;;1.80;1.70;;;;;;;;;;5091915;28;20055;-82
2022/03/14 00:52:54;;;;;;;0.75;0.75;;;;;;;;;;5091984;28;20491;-82
2022/03/14 00:55:19;;;;;;;0.68;0.68;;;;;;;;;;5092333;28;20114;-81
2022/03/14 00:57:44;;;;;;;1.02;1.02;;;;;;;;;;5092756;28;20020;-84
2022/03/14 01:00:10;;;;;;;0.60;0.60;;;;;;;;;;5091851;28;20059;-84
2022/03/14 01:02:35;;;;;;;1.27;1.27;;;;;;;;;;5091786;28;20024;-82
2022/03/14 01:05:01;;;;;;;0.77;0.77;;;;;;;;;;5092018;28;20047;-83
2022/03/14 01:07:26;;;;;;;0.75;0.75;;;;;;;;;;5091636;28;20112;-84
2022/03/14 01:09:51;;;;;;;0.50;0.50;;;;;;;;;;5092116;28;20020;-82
2022/03/14 01:12:17;;;;;;;0.65;0.65;;;;;;;;;;5094453;28;20012;-83
2022/03/14 01:14:43;;;;;;;0.52;0.52;;;;;;;;;;5096331;28;20123;-84
2022/03/14 01:17:09;;;;;;;0.60;0.60;;;;;;;;;;5095859;28;20023;-85
2022/03/14 01:19:34;;;;;;;0.35;0.35;;;;;;;;;;5096185;28;20020;-86
2022/03/14 01:22:00;;;;;;;4.65;1.55;;;;;;;;;;5096801;28;20043;-86
2022/03/14 01:24:25;;;;;;;0.40;0.40;;;;;;;;;;5097018;28;20028;-86
2022/03/14 01:26:51;;;;;;;8.65;5.47;;;;;;;;;;5096586;28;20101;-83
2022/03/14 01:29:17;;;;;;;4.68;3.72;;;;;;;;;;5096776;28;20054;-85
2022/03/14 01:31:43;;;;;;;2.85;1.52;;;;;;;;;;5096958;28;20422;-85
2022/03/14 01:34:08;;;;;;;0.70;0.70;;;;;;;;;;5095996;28;20028;-85
2022/03/14 01:36:34;;;;;;;1.30;1.30;;;;;;;;;;5096107;28;20483;-82
2022/03/14 01:39:00;;;;;;;0.50;0.50;;;;;;;;;;5096145;28;20020;-83
2022/03/14 01:41:26;;;;;;;2.25;2.13;;;;;;;;;;5096159;28;20017;-84
2022/03/14 01:43:52;;;;;;;0.77;0.77;;;;;;;;;;5095435;28;20027;-81
2022/03/14 01:46:18;;;;;;;2.33;2.15;;;;;;;;;;5095533;28;20024;-82
2022/03/14 01:48:44;;;;;;;1.45;1.45;;;;;;;;;;5095863;28;20028;-83
2022/03/14 01:51:09;;;;;;;6.95;5.47;;;;;;;;;;5095771;28;20016;-82
2022/03/14 01:53:35;;;;;;;7.50;6.95;;;;;;;;;;5095697;28;20483;-82
2022/03/14 01:56:00;;;;;;;0.63;0.63;;;;;;;;;;5095645;28;20027;-84
2022/03/14 01:58:25;;;;;;;1.85;1.75;;;;;;;;;;5095631;28;20117;-84
2022/03/14 02:00:51;;;;;;;0.50;0.50;;;;;;;;;;5095445;28;20012;-86
2022/03/14 02:03:17;;;;;;;0.60;0.60;;;;;;;;;;5095169;28;20024;-81
2022/03/14 02:05:47;;;;;;;3.83;1.13;;;;;;;;;;5095064;28;20043;-83
2022/03/14 02:08:12;;;;;;;2.53;2.42;;;;;;;;;;5095190;28;20020;-83
2022/03/14 02:10:38;;;;;;;2.67;1.45;;;;;;;;;;5094853;28;20365;-84
2022/03/14 02:13:07;;;;;;;1.25;1.25;;;;;;;;;;5095565;28;20085;-81
2022/03/14 02:15:33;;;;;;;0.70;0.70;;;;;;;;;;5094540;28;20020;-84
2022/03/14 02:17:59;;;;;;;1.23;1.23;;;;;;;;;;5094715;28;20020;-84
2022/03/14 02:20:24;;;;;;;0.50;0.50;;;;;;;;;;5094572;28;20015;-84
2022/03/14 02:22:49;;;;;;;0.35;0.35;;;;;;;;;;5094496;28;20388;-84
2022/03/14 02:25:14;;;;;;;14.18;1.52;;;;;;;;;;5093912;28;20058;-83
2022/03/14 02:27:40;;;;;;;1.77;1.67;;;;;;;;;;5094653;28;20022;-84
2022/03/14 02:30:05;;;;;;;0.60;0.60;;;;;;;;;;5094572;28;20212;-82
2022/03/14 02:32:31;;;;;;;1.30;1.30;;;;;;;;;;5094450;28;20120;-82
2022/03/14 02:34:56;;;;;;;0.30;0.30;;;;;;;;;;5093971;28;20052;-83
2022/03/14 02:37:22;;;;;;;1.77;1.20;;;;;;;;;;5094449;28;20025;-82
2022/03/14 02:39:47;;;;;;;0.40;0.40;;;;;;;;;;5094376;28;20020;-82
2022/03/14 02:42:13;;;;;;;1.85;1.75;;;;;;;;;;5094036;28;20020;-82
2022/03/14 02:44:41;;;;;;;0.43;0.43;;;;;;;;;;5093950;28;20027;-83
2022/03/14 02:47:07;;;;;;;2.83;1.27;;;;;;;;;;5094233;28;20077;-82
2022/03/14 02:49:33;;;;;;;1.13;1.13;;;;;;;;;;5093861;28;20020;-83
2022/03/14 02:51:58;;;;;;;1.10;1.10;;;;;;;;;;5094465;28;20103;-83
2022/03/14 02:54:24;;;;;;;0.40;0.40;;;;;;;;;;5093908;28;20090;-84
2022/03/14 02:56:49;;;;;;;2.45;0.98;;;;;;;;;;5093989;28;20099;-86
2022/03/14 02:59:14;;;;;;;0.50;0.50;;;;;;;;;;5093673;28;20020;-82
2022/03/14 03:01:39;;;;;;;0.57;0.57;;;;;;;;;;5094311;28;20020;-83
2022/03/14 03:04:05;;;;;;;0.97;0.73;;;;;;;;;;5093549;28;20451;-80
2022/03/14 03:06:33;;;;;;;0.30;0.30;;;;;;;;;;5093436;28;20293;-81
2022/03/14 03:08:58;;;;;;;0.57;0.57;;;;;;;;;;5094396;28;20484;-81
2022/03/14 03:11:24;;;;;;;0.68;0.68;;;;;;;;;;5093312;28;20123;-84
2022/03/14 03:13:50;;;;;;;1.20;1.20;;;;;;;;;;5093823;28;20020;-81
2022/03/14 03:16:16;;;;;;;1.15;1.15;;;;;;;;;;5093248;28;20423;-84
2022/03/14 03:18:45;;;;;;;0.50;0.50;;;;;;;;;;5093398;28;20451;-83
2022/03/14 03:21:11;;;;;;;0.63;0.63;;;;;;;;;;5093627;28;20020;-80
2022/03/14 03:23:36;;;;;;;1.95;1.85;;;;;;;;;;5093501;28;20082;-82
2022/03/14 03:26:02;;;;;;;0.80;0.80;;;;;;;;;;5093658;28;20020;-83
2022/03/14 03:28:28;;;;;;;0.50;0.50;;;;;;;;;;5092737;28;20023;-84
2022/03/14 03:30:53;;;;;;;0.30;0.30;;;;;;;;;;5093568;28;20024;-84
2022/03/14 03:33:18;;;;;;;0.93;0.93;;;;;;;;;;5093146;28;20020;-82
2022/03/14 03:35:44;;;;;;;0.35;0.35;;;;;;;;;;5094224;28;20048;-83
2022/03/14 03:38:09;;;;;;;1.00;1.00;;;;;;;;;;5094048;28;20020;-83
2022/03/14 03:40:34;;;;;;;0.90;0.90;;;;;;;;;;5093247;28;20064;-83
2022/03/14 03:43:00;;;;;;;0.60;0.60;;;;;;;;;;5092997;28;20020;-84
2022/03/14 03:45:26;;;;;;;2.35;1.10;;;;;;;;;;5093283;28;20024;-82
2022/03/14 03:47:52;;;;;;;0.35;0.35;;;;;;;;;;5092994;28;20016;-83
2022/03/14 03:50:18;;;;;;;0.60;0.60;;;;;;;;;;5092829;28;20027;-82
2022/03/14 03:52:43;;;;;;;1.08;1.08;;;;;;;;;;5093013;28;20016;-83
2022/03/14 03:55:09;;;;;;;1.08;1.05;;;;;;;;;;5093526;28;20028;-84
2022/03/14 03:57:35;;;;;;;1.00;1.00;;;;;;;;;;5092799;28;20020;-83
2022/03/14 04:00:00;;;;;;;0.55;0.55;;;;;;;;;;5092769;28;20023;-82
2022/03/14 04:02:26;;;;;;;0.52;0.52;;;;;;;;;;5092815;28;20111;-83
2022/03/14 04:04:52;;;;;;;0.47;0.47;;;;;;;;;;5092480;28;20480;-82
2022/03/14 04:07:23;;;;;;;0.70;0.70;;;;;;;;;;5092498;28;20468;-85
2022/03/14 04:09:55;;;;;;;0.65;0.65;;;;;;;;;;5092921;28;20456;-82
2022/03/14 04:12:21;;;;;;;0.55;0.55;;;;;;;;;;5093351;28;20023;-82
2022/03/14 04:14:47;;;;;;;1.73;1.63;;;;;;;;;;5092686;28;20032;-84
2022/03/14 04:17:12;;;;;;;0.70;0.70;;;;;;;;;;5092690;28;20012;-84
2022/03/14 04:19:41;;;;;;;0.73;0.73;;;;;;;;;;5092400;28;20464;-86
2022/03/14 04:22:07;;;;;;;0.40;0.40;;;;;;;;;;5092888;28;20012;-84
2022/03/14 04:24:36;;;;;;;0.63;0.63;;;;;;;;;;5092210;28;20073;-82
2022/03/14 04:27:01;;;;;;;4.57;1.45;;;;;;;;;;5092809;28;20073;-86
2022/03/14 04:29:27;;;;;;;0.65;0.65;;;;;;;;;;5092075;28;20028;-84
2022/03/14 04:31:53;;;;;;;0.55;0.55;;;;;;;;;;5092500;28;20020;-84
2022/03/14 04:34:18;;;;;;;0.70;0.70;;;;;;;;;;5092156;28;20055;-83
2022/03/14 04:36:44;;;;;;;0.50;0.50;;;;;;;;;;5092426;28;20054;-84
2022/03/14 04:39:09;;;;;;;0.52;0.52;;;;;;;;;;5093282;28;20046;-82
2022/03/14 04:41:37;;;;;;;0.43;0.43;;;;;;;;;;5092547;28;20027;-82
2022/03/14 04:44:02;;;;;;;;;;;;;;;;;;5093543;28;20023;-84
2022/03/14 04:46:27;;;;;;;0.30;0.30;;;;;;;;;;5092363;28;19904;-82
2022/03/14 04:48:53;;;;;;;0.75;0.73;;;;;;;;;;5091877;28;20376;-81
2022/03/14 04:51:18;;;;;;;0.63;0.63;;;;;;;;;;5092162;28;20020;-84
2022/03/14 04:53:43;;;;;;;0.30;0.30;;;;;;;;;;5092084;28;20043;-83
2022/03/14 04:56:09;;;;;;;0.70;0.70;;;;;;;;;;5092037;28;20045;-82
2022/03/14 04:58:34;;;;;;;0.40;0.40;;;;;;;;;;5091967;28;20081;-81
2022/03/14 05:01:00;;;;;;;0.55;0.55;;;;;;;;;;5091831;28;20063;-83
2022/03/14 05:03:25;;;;;;;0.40;0.40;;;;;;;;;;5091661;28;20115;-83
2022/03/14 05:05:51;;;;;;;1.80;1.65;;;;;;;;;;5092558;28;20511;-82
2022/03/14 05:08:16;;;;;;;9.57;1.42;;;;;;;;;;5091402;28;20124;-83
2022/03/14 05:10:42;;;;;;;6.38;3.55;;;;;;;;;;5092520;28;20073;-83
2022/03/14 05:13:08;;;;;;;4.50;1.20;;;;;;;;;;5091813;28;20020;-84
2022/03/14 05:15:33;;;;;;;1.73;1.58;;;;;;;;;;5091477;28;20023;-81
2022/03/14 05:17:58;;;;;;;3.15;1.33;;;;;;;;;;5091636;28;20539;-82
2022/03/14 05:20:24;;;;;;;0.50;0.50;;;;;;;;;;5091573;28;20012;-82
2022/03/14 05:22:50;;;;;;;2.00;1.92;;;;;;;;;;5091514;28;20024;-83
2022/03/14 05:25:18;;;;;;;3.65;1.33;;;;;;;;;;5091361;28;20490;-82
2022/03/14 05:27:44;;;;;;;2.22;2.13;;;;;;;;;;5091753;28;20483;-82
2022/03/14 05:30:09;;;;;;;0.57;0.57;;;;;;;;;;5091450;28;20016;-82
2022/03/14 05:32:35;;;;;;;3.22;2.00;;;;;;;;;;5091436;28;20024;-82
2022/03/14 05:35:00;;;;;;;0.90;0.90;;;;;;;;;;5090897;28;20048;-82
2022/03/14 05:37:26;;;;;;;0.88;0.88;;;;;;;;;;5091373;28;20024;-84
2022/03/14 05:39:51;;;;;;;0.50;0.50;;;;;;;;;;5091444;28;20020;-83
2022/03/14 05:42:16;;;;;;;0.77;0.77;;;;;;;;;;5091489;28;20561;-81
2022/03/14 05:44:45;;;;;;;0.98;0.98;;;;;;;;;;5091697;28;20034;-83
2022/03/14 05:47:11;;;;;;;1.20;1.20;;;;;;;;;;5092711;28;20020;-81
2022/03/14 05:49:36;;;;;;;1.45;0.80;;;;;;;;;;5091599;28;20028;-86
2022/03/14 05:52:02;;;;;;;0.93;0.93;;;;;;;;;;5092314;28;20017;-85
2022/03/14 05:54:27;;;;;;;0.65;0.65;;;;;;;;;;5091508;28;20511;-83
2022/03/14 05:56:54;;;;;;;4.53;2.53;;;;;;;;;;5091761;28;20022;-83
2022/03/14 05:59:19;;;;;;;0.75;0.75;;;;;;;;;;5093585;28;20020;-83
2022/03/14 06:01:45;;;;;;;0.25;0.25;;;;;;;;;;5094937;28;20016;-83
2022/03/14 06:04:10;;;;;;;0.63;0.40;;;;;;;;;;5095271;28;20016;-83
2022/03/14 06:06:37;;;;;;;0.50;0.50;;;;;;;;;;5095165;28;20027;-83
2022/03/14 06:09:02;;;;;;;0.50;0.50;;;;;;;;;;5094970;28;20027;-84
2022/03/14 06:11:28;;;;;;;0.88;0.88;;;;;;;;;;5095673;28;20020;-84
2022/03/14 06:13:53;;;;;;;0.40;0.40;;;;;;;;;;5094657;28;20020;-82
2022/03/14 06:16:18;;;;;;;0.50;0.50;;;;;;;;;;5095362;28;20032;-82
2022/03/14 06:18:43;;;;;;;3.30;1.35;;;;;;;;;;5094935;28;20016;-83
2022/03/14 06:21:09;;;;;;;0.52;0.52;;;;;;;;;;5094855;28;20031;-83
2022/03/14 06:23:35;;;;;;;0.20;0.20;;;;;;;;;;5095066;28;20027;-82
2022/03/14 06:26:00;;;;;;;1.05;1.05;;;;;;;;;;5094710;28;20070;-82
2022/03/14 06:28:26;;;;;;;2.72;1.95;;;;;;;;;;5094719;28;20020;-86
2022/03/14 06:30:51;;;;;;;0.95;0.95;;;;;;;;;;5094363;28;20123;-82
2022/03/14 06:33:16;;;;;;;0.73;0.73;;;;;;;;;;5094095;28;20020;-83
2022/03/14 06:35:42;;;;;;;1.77;1.67;;;;;;;;;;5094566;28;20572;-83
2022/03/14 06:38:10;;;;;;;0.30;0.30;;;;;;;;;;5094754;28;20016;-84
2022/03/14 06:40:36;;;;;;;0.52;0.52;;;;;;;;;;5094695;28;20016;-83
2022/03/14 06:43:01;;;;;;;0.88;0.88;;;;;;;;;;5094521;28;20031;-84
2022/03/14 06:45:26;;;;;;;0.50;0.50;;;;;;;;;;5094109;28;20406;-82
2022/03/14 06:47:52;;;;;;;1.13;1.13;;;;;;;;;;5094466;28;20333;-84
2022/03/14 06:50:18;;;;;;;0.85;0.85;;;;;;;;;;5094526;28;20055;-82
2022/03/14 06:52:43;;;;;;;2.42;2.22;;;;;;;;;;5094640;28;20464;-82
2022/03/14 06:55:10;;;;;;;0.40;0.40;;;;;;;;;;5094091;28;20028;-82
2022/03/14 06:57:36;;;;;;;0.68;0.68;;;;;;;;;;5095291;28;20019;-81
2022/03/14 07:00:01;;;;;;;0.30;0.30;;;;;;;;;;5094831;28;20012;-83
2022/03/14 07:02:27;;;;;;;1.13;1.02;;;;;;;;;;5094069;28;20042;-81
2022/03/14 07:04:53;;;;;;;2.03;1.90;;;;;;;;;;5094000;28;20035;-84
2022/03/14 07:07:18;;;;;;;2.35;0.95;;;;;;;;;;5093930;28;20048;-85
2022/03/14 07:09:43;;;;;;;1.20;1.20;;;;;;;;;;5095039;28;20020;-84
2022/03/14 07:12:12;;;;;;;0.52;0.52;;;;;;;;;;5094199;28;20286;-80
2022/03/14 07:14:38;;;;;;;0.85;0.85;;;;;;;;;;5093792;28;20106;-80
2022/03/14 07:17:03;;;;;;;0.77;0.77;;;;;;;;;;5093682;28;20051;-80
2022/03/14 07:19:28;;;;;;;0.43;0.43;;;;;;;;;;5093448;28;20016;-80
2022/03/14 07:21:54;;;;;;;1.95;1.73;;;;;;;;;;5093264;28;20448;-80
2022/03/14 07:24:19;;;;;;;1.07;1.07;;;;;;;;;;5093236;28;20543;-83
2022/03/14 07:26:44;;;;;;;2.63;2.47;;;;;;;;;;5093569;28;20265;-80
2022/03/14 07:29:10;;;;;;;0.87;0.87;;;;;;;;;;5093048;28;20369;-82
2022/03/14 07:31:37;;;;;;;1.75;1.50;;;;;;;;;;5093367;28;20256;-80
2022/03/14 07:34:02;;;;;;;1.05;0.95;;;;;;;;;;5092997;28;20012;-76
2022/03/14 07:36:27;;;;;;;0.80;0.80;;;;;;;;;;5093151;28;20081;-79
2022/03/14 07:38:55;;;;;;;0.73;0.73;;;;;;;;;;5093367;28;20016;-77
2022/03/14 07:41:20;;;;;;;2.38;1.75;;;;;;;;;;5093014;28;20312;-78
2022/03/14 07:43:46;;;;;;;1.10;1.07;;;;;;;;;;5093699;28;20024;-80
2022/03/14 07:46:11;;;;;;;0.47;0.47;;;;;;;;;;5093349;28;20258;-78
2022/03/14 07:48:36;;;;;;;0.40;0.40;;;;;;;;;;5092877;28;20399;-78
2022/03/14 07:51:03;;;;;;;0.80;0.80;;;;;;;;;;5092909;28;20019;-80
2022/03/14 07:53:29;;;;;;;2.50;1.35;;;;;;;;;;5093905;28;20479;-74
2022/03/14 07:55:54;;;;;;;0.75;0.75;;;;;;;;;;5092279;28;20020;-79
2022/03/14 07:58:19;;;;;;;0.90;0.90;;;;;;;;;;5092166;28;20463;-73
2022/03/14 08:00:44;;;;;;;0.95;0.95;;;;;;;;;;5092089;28;20108;-75
2022/03/14 08:03:10;;;;;;;5.65;1.73;;;;;;;;;;5092057;28;20020;-76
2022/03/14 08:05:35;;;;;;;1.85;1.67;;;;;;;;;;5092905;28;20085;-76
2022/03/14 08:08:05;;;;;;;4.47;2.05;;;;;;;;;;5092531;28;20464;-74
2022/03/14 08:10:30;;;;;;;1.00;0.82;;;;;;;;;;5092659;28;20020;-75
2022/03/14 08:12:56;;;;;;;0.73;0.73;;;;;;;;;;5092594;28;20027;-75
2022/03/14 08:15:22;;;;;;;4.28;1.42;;;;;;;;;;5092367;28;20031;-73
2022/03/14 08:17:48;;;;;;;0.63;0.63;;;;;;;;;;5092557;28;20119;-77
2022/03/14 08:20:13;;;;;;;0.52;0.52;;;;;;;;;;5092373;28;20047;-74
2022/03/14 08:22:39;;;;;;;1.33;1.33;;;;;;;;;;5093274;28;20020;-75
2022/03/14 08:25:04;;;;;;;0.75;0.75;;;;;;;;;;5092716;28;20073;-75
2022/03/14 08:27:30;;;;;;;0.50;0.50;;;;;;;;;;5092355;28;20016;-73
2022/03/14 08:29:55;;;;;;;1.25;1.10;;;;;;;;;;5092318;28;20020;-74
2022/03/14 08:32:21;;;;;;;1.55;1.42;;;;;;;;;;5093382;28;20069;-74
2022/03/14 08:34:47;;;;;;;0.50;0.50;;;;;;;;;;5091840;28;20089;-75
2022/03/14 08:37:12;;;;;;;1.40;1.30;;;;;;;;;;5092471;28;20020;-73
2022/03/14 08:39:37;;;;;;;1.57;1.50;;;;;;;;;;5092019;28;20012;-73
2022/03/14 08:42:04;;;;;;;0.40;0.40;;;;;;;;;;5092346;28;20253;-76
2022/03/14 08:44:29;;;;;;;0.77;0.77;;;;;;;;;;5092064;28;20259;-76
2022/03/14 08:46:54;;;;;;;0.70;0.70;;;;;;;;;;5092061;28;20388;-75
2022/03/14 08:49:20;;;;;;;1.77;1.70;;;;;;;;;;5092395;28;20250;-74
2022/03/14 08:51:45;;;;;;;0.52;0.52;;;;;;;;;;5092288;28;20399;-73
2022/03/14 08:54:11;;;;;;;0.45;0.45;;;;;;;;;;5091954;28;20016;-73
2022/03/14 08:56:37;;;;;;;1.65;1.55;;;;;;;;;;5091901;28;20575;-73
2022/03/14 08:59:03;;;;;;;1.75;1.63;;;;;;;;;;5091921;28;20016;-73
2022/03/14 09:01:28;;;;;;;3.42;1.35;;;;;;;;;;5091987;28;20032;-75
2022/03/14 09:03:53;;;;;;;0.63;0.63;;;;;;;;;;5092385;28;20029;-74
2022/03/14 09:06:19;;;;;;;0.73;0.73;;;;;;;;;;5091972;28;20772;-75
2022/03/14 09:08:44;;;;;;;0.77;0.77;;;;;;;;;;5091582;28;20028;-73
2022/03/14 09:11:09;;;;;;;1.00;0.93;;;;;;;;;;5091848;28;20246;-72
2022/03/14 09:13:34;;;;;;;1.27;1.17;;;;;;;;;;5091823;28;20016;-75
2022/03/14 09:16:00;;;;;;;0.20;0.20;;;;;;;;;;5092090;28;20320;-73
2022/03/14 09:18:31;;;;;;;0.45;0.45;;;;;;;;;;5091815;28;20023;-74
2022/03/14 09:20:56;;;;;;;0.45;0.45;;;;;;;;;;5091867;28;20020;-75
2022/03/14 09:23:24;;;;;;;1.17;1.15;;;;;;;;;;5091853;28;20028;-73
2022/03/14 09:25:50;;;;;;;1.17;1.05;;;;;;;;;;5091901;28;20027;-73
2022/03/14 09:28:15;;;;;;;1.35;1.15;;;;;;;;;;5092358;28;20024;-76
2022/03/14 09:30:41;;;;;;;0.50;0.50;;;;;;;;;;5092006;28;20020;-78
2022/03/14 09:33:07;;;;;;;0.47;0.47;;;;;;;;;;5091874;28;20027;-76
2022/03/14 09:35:34;;;;;;;0.90;0.57;;;;;;;;;;5095432;28;20138;-74
2022/03/14 09:37:59;;;;;;;0.70;0.70;;;;;;;;;;5096620;28;20440;-74
2022/03/14 09:40:25;;;;;;;1.30;1.30;;;;;;;;;;5095386;28;20016;-74
2022/03/14 09:42:52;;;;;;;1.60;1.38;;;;;;;;;;5095222;28;20016;-74
2022/03/14 09:45:19;;;;;;;0.50;0.50;;;;;;;;;;5095304;28;20038;-76
2022/03/14 09:47:49;;;;;;;0.32;0.32;;;;;;;;;;5096494;28;20012;-74
2022/03/14 09:50:26;;;;;;;0.88;0.88;;;;;;;;;;5095264;28;20020;-76
2022/03/14 09:52:53;;;;;;;1.40;0.73;;;;;;;;;;5095840;28;20020;-75
2022/03/14 09:55:19;;;;;;;0.73;0.73;;;;;;;;;;5095005;28;20335;-73
2022/03/14 09:57:45;;;;;;;0.73;0.68;;;;;;;;;;5095203;28;20024;-77
2022/03/14 10:00:13;;;;;;;0.30;0.30;;;;;;;;;;5095194;28;20369;-76
2022/03/14 10:02:39;;;;;;;0.32;0.32;;;;;;;;;;5095194;28;20381;-74
2022/03/14 10:05:08;;;;;;;0.82;0.82;;;;;;;;;;5094570;28;20024;-74
2022/03/14 10:07:34;;;;;;;0.73;0.73;;;;;;;;;;5094750;28;20027;-73
2022/03/14 10:09:59;;;;;;;0.77;0.77;;;;;;;;;;5096827;28;20012;-75
2022/03/14 10:12:25;;;;;;;1.60;1.50;;;;;;;;;;5095915;28;20097;-75
2022/03/14 10:14:50;;;;;;;0.32;0.32;;;;;;;;;;5095026;28;20472;-74
2022/03/14 10:17:16;;;;;;;0.22;0.22;;;;;;;;;;5095588;28;20046;-73
2022/03/14 10:19:51;;;;;;;0.90;0.90;;;;;;;;;;5094823;28;20016;-75
2022/03/14 10:22:18;;;;;;;0.82;0.82;;;;;;;;;;5094977;28;20400;-73
2022/03/14 10:24:44;;;;;;;0.30;0.30;;;;;;;;;;5094808;28;20020;-78
2022/03/14 10:27:10;;;;;;;0.45;0.45;;;;;;;;;;5094532;28;20456;-80
2022/03/14 10:29:35;;;;;;;1.92;1.40;;;;;;;;;;5094514;28;20012;-80
2022/03/14 10:32:01;;;;;;;1.52;1.42;;;;;;;;;;5095052;28;20165;-74
2022/03/14 10:34:26;;;;;;;1.70;1.60;;;;;;;;;;5094386;28;20419;-78
2022/03/14 10:36:54;;;;;;;1.43;1.33;;;;;;;;;;5094499;28;20024;-74
2022/03/14 10:39:20;;;;;;;1.85;1.75;;;;;;;;;;5094480;28;20254;-75
2022/03/14 10:41:47;;;;;;;0.82;0.82;;;;;;;;;;5094664;28;20456;-73
2022/03/14 10:44:21;;;;;;;0.68;0.68;;;;;;;;;;5093810;28;20060;-78
2022/03/14 10:46:46;;;;;;;0.50;0.50;;;;;;;;;;5094302;28;20483;-73
2022/03/14 10:49:12;;;;;;;0.70;0.70;;;;;;;;;;5094499;28;20073;-77
2022/03/14 10:51:51;;;;;;;1.55;0.68;;;;;;;;;;5094292;28;20044;-73
2022/03/14 10:54:17;;;;;;;1.02;1.02;;;;;;;;;;5087902;28;20464;-74
2022/03/14 10:56:58;;;;;;;0.75;0.75;;;;;;;;;;5073664;28;20039;-73
2022/03/14 10:59:34;;;;;;;5.05;1.63;;;;;;;;;;5074527;28;20017;-74
2022/03/14 11:02:00;;;;;;;0.65;0.65;;;;;;;;;;5073918;28;20098;-73
2022/03/14 11:04:26;;;;;;;1.35;1.00;;;;;;;;;;5091006;28;20012;-76
2022/03/14 11:07:00;;;;;;;1.65;1.55;;;;;;;;;;5073800;28;20021;-73
2022/03/14 11:09:44;;;;;;;0.30;0.30;;;;;;;;;;5073459;28;20107;-77
2022/03/14 11:12:11;;;;;;;1.20;1.20;;;;;;;;;;5091773;28;20107;-73
2022/03/14 11:14:36;;;;;;;0.50;0.50;;;;;;;;;;5093704;28;20020;-73
2022/03/14 11:17:19;;;;;;;1.20;1.15;;;;;;;;;;5093640;28;20043;-79
2022/03/14 11:19:45;;;;;;;2.95;1.30;;;;;;;;;;5094147;28;20024;-74
2022/03/14 11:22:11;;;;;;;3.42;2.35;;;;;;;;;;5093562;28;20106;-73
2022/03/14 11:24:41;;;;;;;1.25;0.57;;;;;;;;;;5093378;28;20045;-73
2022/03/14 11:27:07;;;;;;;3.30;3.05;;;;;;;;;;5093256;28;20027;-73
2022/03/14 11:29:34;;;;;;;1.13;1.13;;;;;;;;;;5093436;28;20019;-74
2022/03/14 11:32:00;;;;;;;0.93;0.93;;;;;;;;;;5093436;28;20030;-73
2022/03/14 11:34:28;;;;;;;4.20;1.50;;;;;;;;;;5093707;28;20044;-75
2022/03/14 11:36:54;;;;;;;1.33;0.95;;;;;;;;;;5093333;28;20036;-75
2022/03/14 11:39:20;;;;;;;0.90;0.90;;;;;;;;;;5093335;28;20487;-73
2022/03/14 11:41:46;;;;;;;1.45;1.20;;;;;;;;;;5093234;28;20095;-74
2022/03/14 11:44:11;;;;;;;0.80;0.63;;;;;;;;;;5092968;28;20028;-74
2022/03/14 11:46:37;;;;;;;0.90;0.90;;;;;;;;;;5092898;28;20028;-75
2022/03/14 11:49:10;;;;;;;0.60;0.60;;;;;;;;;;5092874;28;20020;-75
2022/03/14 11:51:40;;;;;;;2.17;1.95;;;;;;;;;;5092880;28;20099;-73
2022/03/14 11:54:10;;;;;;;1.55;1.45;;;;;;;;;;5093999;28;20043;-74
2022/03/14 11:56:38;;;;;;;0.57;0.57;;;;;;;;;;5091421;28;20024;-74
2022/03/14 11:59:07;;;;;;;1.80;1.67;;;;;;;;;;5092956;28;20020;-76
2022/03/14 12:01:33;;;;;;;1.27;1.23;;;;;;;;;;5092970;28;20016;-79
2022/03/14 12:04:00;;;;;;;0.85;0.85;;;;;;;;;;5092798;28;20482;-75
2022/03/14 12:06:43;;;;;;;1.52;1.42;;;;;;;;;;5092718;28;20020;-74
2022/03/14 12:09:09;;;;;;;4.93;1.73;;;;;;;;;;5092694;28;20498;-77
2022/03/14 12:11:37;;;;;;;0.20;0.20;;;;;;;;;;5092695;28;20016;-75
2022/03/14 12:14:04;;;;;;;1.10;1.10;;;;;;;;;;5092978;28;20043;-74
2022/03/14 12:16:37;;;;;;;0.22;0.22;;;;;;;;;;5093627;28;20021;-81
2022/03/14 12:19:29;;;;;;;2.00;1.90;;;;;;;;;;5092621;28;20107;-81
2022/03/14 12:21:55;;;;;;;3.45;3.08;;;;;;;;;;5088240;28;20470;-80
2022/03/14 12:24:40;;;;;;;0.85;0.85;;;;;;;;;;5092420;28;20116;-80
2022/03/14 12:27:14;;;;;;;1.17;1.10;;;;;;;;;;5092480;28;20463;-81
2022/03/14 12:29:43;;;;;;;1.88;1.77;;;;;;;;;;5091975;28;20115;-78
2022/03/14 12:32:23;;;;;;;0.63;0.63;;;;;;;;;;5092343;28;20542;-77
2022/03/14 12:35:08;;;;;;;1.48;1.40;;;;;;;;;;5092425;28;20048;-80
2022/03/14 12:37:39;;;;;;;1.27;0.65;;;;;;;;;;5092329;28;20423;-79
2022/03/14 12:40:25;;;;;;;0.85;0.77;;;;;;;;;;5092572;28;20043;-79
2022/03/14 12:42:51;;;;;;;1.33;0.90;;;;;;;;;;5089980;28;20510;-80
2022/03/14 12:45:27;;;;;;;2.38;2.08;;;;;;;;;;5092085;28;20020;-80
2022/03/14 12:47:57;;;;;;;0.68;0.68;;;;;;;;;;5092179;28;20012;-81
2022/03/14 12:50:41;;;;;;;3.42;2.90;;;;;;;;;;5093522;28;20444;-81
2022/03/14 12:53:06;;;;;;;1.33;1.23;;;;;;;;;;5092102;28;20101;-81
2022/03/14 12:55:32;;;;;;;0.35;0.35;;;;;;;;;;5092232;28;20082;-80
2022/03/14 12:57:58;;;;;;;0.95;0.95;;;;;;;;;;5092129;28;20021;-80
2022/03/14 13:00:23;;;;;;;2.15;1.15;;;;;;;;;;5091871;28;20020;-82
2022/03/14 13:02:49;;;;;;;0.93;0.93;;;;;;;;;;5091970;28;20035;-81
2022/03/14 13:05:18;;;;;;;0.75;0.75;;;;;;;;;;5092161;28;20031;-79
2022/03/14 13:07:43;;;;;;;0.77;0.77;;;;;;;;;;5092931;28;20102;-79
2022/03/14 13:10:09;;;;;;;1.65;1.55;;;;;;;;;;5095940;28;20039;-76
2022/03/14 13:12:34;;;;;;;0.63;0.63;;;;;;;;;;5096508;28;20388;-82
2022/03/14 13:15:02;;;;;;;1.77;1.67;;;;;;;;;;5095838;28;20484;-77
2022/03/14 13:17:27;;;;;;;;;;;;;;;;;;5096260;28;20302;-81
2022/03/14 13:19:53;;;;;;;0.85;0.85;;;;;;;;;;5095952;28;19904;-81
2022/03/14 13:22:18;;;;;;;1.42;1.33;;;;;;;;;;5095833;28;20491;-78
2022/03/14 13:24:45;;;;;;;1.20;1.10;;;;;;;;;;5095857;28;20111;-77
2022/03/14 13:27:10;;;;;;;0.60;0.60;;;;;;;;;;5095834;28;20165;-80
2022/03/14 13:29:40;;;;;;;0.60;0.60;;;;;;;;;;5095630;28;20498;-81
2022/03/14 13:32:12;;;;;;;0.52;0.52;;;;;;;;;;5095341;28;20027;-81
2022/03/14 13:34:37;;;;;;;0.80;0.77;;;;;;;;;;5095328;28;20052;-79
2022/03/14 13:37:03;;;;;;;0.60;0.60;;;;;;;;;;5095513;28;20029;-79
2022/03/14 13:39:28;;;;;;;1.23;0.88;;;;;;;;;;5095601;28;20093;-77
2022/03/14 13:41:55;;;;;;;4.20;3.17;;;;;;;;;;5095426;28;20055;-82
2022/03/14 13:44:21;;;;;;;0.95;0.85;;;;;;;;;;5095221;28;20194;-75
2022/03/14 13:46:48;;;;;;;0.93;0.85;;;;;;;;;;5095293;28;20503;-79
2022/03/14 13:49:14;;;;;;;0.50;0.50;;;;;;;;;;5095281;28;20055;-79
2022/03/14 13:51:41;;;;;;;4.57;4.18;;;;;;;;;;5095271;28;20085;-81
2022/03/14 13:54:11;;;;;;;5.25;4.03;;;;;;;;;;5095402;28;20016;-76
2022/03/14 13:56:38;;;;;;;15.75;4.30;;;;;;;;;;5095272;28;20075;-82
2022/03/14 13:59:04;;;;;;;4.55;2.95;;;;;;;;;;5095094;28;20024;-79
2022/03/14 14:01:46;;;;;;;0.90;0.90;;;;;;;;;;5095077;28;20119;-78
2022/03/14 14:04:16;;;;;;;1.33;1.33;;;;;;;;;;5094994;28;20012;-75
2022/03/14 14:06:44;;;;;;;2.20;2.00;;;;;;;;;;5094864;28;20020;-79
2022/03/14 14:09:09;;;;;;;;;;;;;;;;;;5095355;28;20539;-79
2022/03/14 14:11:35;;;;;;;0.43;0.43;;;;;;;;;;5094898;28;20393;-79
2022/03/14 14:14:01;;;;;;;2.00;1.83;;;;;;;;;;5094850;28;20031;-80
2022/03/14 14:16:26;;;;;;;1.00;1.00;;;;;;;;;;5094907;28;20020;-79
2022/03/14 14:19:14;;;;;;;1.17;1.17;;;;;;;;;;5093973;28;20688;-76
2022/03/14 14:21:51;;;;;;;3.33;1.33;;;;;;;;;;5094207;28;20016;-77
2022/03/14 14:24:21;;;;;;;0.60;0.60;;;;;;;;;;5094717;28;20027;-73
2022/03/14 14:26:46;;;;;;;1.75;1.08;;;;;;;;;;5094594;28;20012;-76
2022/03/14 14:29:31;;;;;;;1.35;1.25;;;;;;;;;;5094585;28;20103;-79
2022/03/14 14:32:16;;;;;;;7.53;2.30;;;;;;;;;;5093849;28;20020;-79
2022/03/14 14:34:41;;;;;;;1.73;1.63;;;;;;;;;;5094117;28;20048;-79
2022/03/14 14:37:07;;;;;;;3.60;1.90;;;;;;;;;;5094358;28;20391;-81
2022/03/14 14:39:35;;;;;;;4.43;2.67;;;;;;;;;;5095543;28;20020;-79
2022/03/14 14:42:07;;;;;;;0.60;0.60;;;;;;;;;;5094244;28;20023;-82